sensor_id;sensor_type;location;lat;lon;timestamp;temperature;humidity
14378;DHT22;7272;53.668;9.578;2023-12-14T00:01:57;5.60;99.90
14378;DHT22;7272;53.668;9.578;2023-12-14T00:04:59;5.60;99.90
14378;DHT22;7272;53.668;9.578;2023-12-14T00:08:00;5.60;99.90
14378;DHT22;7272;53.668;9.578;2023-12-14T00:11:04;5.60;99.90
14378;DHT22;7272;53.668;9.578;2023-12-14T00:14:05;5.60;99.90
14378;DHT22;7272;53.668;9.578;2023-12-14T00:17:06;5.60;99.90
14378;DHT22;7272;53.668;9.578;2023-12-14T00:20:09;5.60;99.90
14378;DHT22;7272;53.668;9.578;2023-12-14T00:23:11;5.60;99.90
14378;DHT22;7272;53.668;9.578;2023-12-14T00:26:12;5.70;99.90
14378;DHT22;7272;53.668;9.578;2023-12-14T00:29:13;5.70;99.90
14378;DHT22;7272;53.668;9.578;2023-12-14T00:32:14;5.70;99.90
14378;DHT22;7272;53.668;9.578;2023-12-14T00:35:16;5.70;99.90
14378;DHT22;7272;53.668;9.578;2023-12-14T00:38:17;5.70;99.90
14378;DHT22;7272;53.668;9.578;2023-12-14T00:41:19;5.70;99.90
14378;DHT22;7272;53.668;9.578;2023-12-14T00:44:20;5.70;99.90
14378;DHT22;7272;53.668;9.578;2023-12-14T00:47:21;5.80;99.90
14378;DHT22;7272;53.668;9.578;2023-12-14T00:50:23;5.80;99.90
14378;DHT22;7272;53.668;9.578;2023-12-14T00:53:24;5.70;99.90
14378;DHT22;7272;53.668;9.578;2023-12-14T00:56:25;5.70;99.90
14378;DHT22;7272;53.668;9.578;2023-12-14T00:59:27;5.60;99.90
14378;DHT22;7272;53.668;9.578;2023-12-14T01:02:29;5.60;99.90
14378;DHT22;7272;53.668;9.578;2023-12-14T01:05:31;5.60;99.90
14378;DHT22;7272;53.668;9.578;2023-12-14T01:08:32;5.60;99.90
14378;DHT22;7272;53.668;9.578;2023-12-14T01:11:34;5.60;99.90
14378;DHT22;7272;53.668;9.578;2023-12-14T01:14:35;5.70;99.90
14378;DHT22;7272;53.668;9.578;2023-12-14T01:17:36;5.70;99.90
14378;DHT22;7272;53.668;9.578;2023-12-14T01:20:39;5.70;99.90
14378;DHT22;7272;53.668;9.578;2023-12-14T01:23:40;5.70;99.90
14378;DHT22;7272;53.668;9.578;2023-12-14T01:26:41;5.80;99.90
14378;DHT22;7272;53.668;9.578;2023-12-14T01:29:42;5.80;99.90
14378;DHT22;7272;53.668;9.578;2023-12-14T01:32:44;5.80;99.90
14378;DHT22;7272;53.668;9.578;2023-12-14T01:35:46;5.80;99.90
14378;DHT22;7272;53.668;9.578;2023-12-14T01:38:47;5.90;99.90
14378;DHT22;7272;53.668;9.578;2023-12-14T01:41:48;5.90;99.90
14378;DHT22;7272;53.668;9.578;2023-12-14T01:44:49;6.00;99.90
14378;DHT22;7272;53.668;9.578;2023-12-14T01:47:51;6.00;99.90
14378;DHT22;7272;53.668;9.578;2023-12-14T01:50:53;6.00;99.90
14378;DHT22;7272;53.668;9.578;2023-12-14T01:53:54;6.00;99.90
14378;DHT22;7272;53.668;9.578;2023-12-14T01:56:55;6.00;99.90
14378;DHT22;7272;53.668;9.578;2023-12-14T01:59:56;6.00;99.90
14378;DHT22;7272;53.668;9.578;2023-12-14T02:02:57;6.00;99.90
14378;DHT22;7272;53.668;9.578;2023-12-14T02:05:59;6.00;99.90
14378;DHT22;7272;53.668;9.578;2023-12-14T02:09:02;6.00;99.90
14378;DHT22;7272;53.668;9.578;2023-12-14T02:12:04;5.90;99.90
14378;DHT22;7272;53.668;9.578;2023-12-14T02:15:06;6.00;99.90
14378;DHT22;7272;53.668;9.578;2023-12-14T02:18:08;5.90;99.90
14378;DHT22;7272;53.668;9.578;2023-12-14T02:21:10;6.00;99.90
14378;DHT22;7272;53.668;9.578;2023-12-14T02:24:12;6.00;99.90
14378;DHT22;7272;53.668;9.578;2023-12-14T02:27:13;6.00;99.90
14378;DHT22;7272;53.668;9.578;2023-12-14T02:30:14;6.00;99.90
14378;DHT22;7272;53.668;9.578;2023-12-14T02:33:15;6.00;99.90
14378;DHT22;7272;53.668;9.578;2023-12-14T02:36:17;6.00;99.90
14378;DHT22;7272;53.668;9.578;2023-12-14T02:39:18;6.00;99.90
14378;DHT22;7272;53.668;9.578;2023-12-14T02:42:20;6.00;99.90
14378;DHT22;7272;53.668;9.578;2023-12-14T02:45:21;6.00;99.90
14378;DHT22;7272;53.668;9.578;2023-12-14T02:48:22;6.10;99.90
14378;DHT22;7272;53.668;9.578;2023-12-14T02:51:23;6.10;99.90
14378;DHT22;7272;53.668;9.578;2023-12-14T02:54:25;6.10;99.90
14378;DHT22;7272;53.668;9.578;2023-12-14T02:57:26;6.10;99.90
14378;DHT22;7272;53.668;9.578;2023-12-14T03:00:27;6.10;99.90
14378;DHT22;7272;53.668;9.578;2023-12-14T03:03:28;6.10;99.90
14378;DHT22;7272;53.668;9.578;2023-12-14T03:06:30;6.10;99.90
14378;DHT22;7272;53.668;9.578;2023-12-14T03:09:31;6.00;99.90
14378;DHT22;7272;53.668;9.578;2023-12-14T03:12:33;6.00;99.90
14378;DHT22;7272;53.668;9.578;2023-12-14T03:15:34;6.10;99.90
14378;DHT22;7272;53.668;9.578;2023-12-14T03:18:35;6.10;99.90
14378;DHT22;7272;53.668;9.578;2023-12-14T03:21:36;6.10;99.90
14378;DHT22;7272;53.668;9.578;2023-12-14T03:24:38;6.00;99.90
14378;DHT22;7272;53.668;9.578;2023-12-14T03:27:39;6.00;99.90
14378;DHT22;7272;53.668;9.578;2023-12-14T03:30:40;6.10;99.90
14378;DHT22;7272;53.668;9.578;2023-12-14T03:33:42;6.00;99.90
14378;DHT22;7272;53.668;9.578;2023-12-14T03:36:43;6.10;99.90
14378;DHT22;7272;53.668;9.578;2023-12-14T03:39:45;6.10;99.90
14378;DHT22;7272;53.668;9.578;2023-12-14T03:42:46;6.10;99.90
14378;DHT22;7272;53.668;9.578;2023-12-14T03:45:47;6.10;99.90
14378;DHT22;7272;53.668;9.578;2023-12-14T03:48:49;6.10;99.90
14378;DHT22;7272;53.668;9.578;2023-12-14T03:51:50;6.10;99.90
14378;DHT22;7272;53.668;9.578;2023-12-14T03:54:52;6.10;99.90
14378;DHT22;7272;53.668;9.578;2023-12-14T03:57:53;6.10;99.90
14378;DHT22;7272;53.668;9.578;2023-12-14T04:00:54;6.10;99.90
14378;DHT22;7272;53.668;9.578;2023-12-14T04:03:55;6.10;99.90
14378;DHT22;7272;53.668;9.578;2023-12-14T04:06:56;6.10;99.90
14378;DHT22;7272;53.668;9.578;2023-12-14T04:09:58;6.10;99.90
14378;DHT22;7272;53.668;9.578;2023-12-14T04:13:00;6.00;99.90
14378;DHT22;7272;53.668;9.578;2023-12-14T04:16:01;6.00;99.90
14378;DHT22;7272;53.668;9.578;2023-12-14T04:19:02;6.00;99.90
14378;DHT22;7272;53.668;9.578;2023-12-14T04:22:04;6.00;99.90
14378;DHT22;7272;53.668;9.578;2023-12-14T04:25:06;5.90;99.90
14378;DHT22;7272;53.668;9.578;2023-12-14T04:28:08;5.90;99.90
14378;DHT22;7272;53.668;9.578;2023-12-14T04:31:09;5.90;99.90
14378;DHT22;7272;53.668;9.578;2023-12-14T04:34:11;5.90;99.90
14378;DHT22;7272;53.668;9.578;2023-12-14T04:37:16;5.90;99.90
14378;DHT22;7272;53.668;9.578;2023-12-14T04:40:18;5.90;99.90
14378;DHT22;7272;53.668;9.578;2023-12-14T04:43:19;5.80;99.90
14378;DHT22;7272;53.668;9.578;2023-12-14T04:46:20;5.80;99.90
14378;DHT22;7272;53.668;9.578;2023-12-14T04:49:22;5.80;99.90
14378;DHT22;7272;53.668;9.578;2023-12-14T04:52:23;5.80;99.90
14378;DHT22;7272;53.668;9.578;2023-12-14T04:55:25;5.80;99.90
14378;DHT22;7272;53.668;9.578;2023-12-14T04:58:26;5.80;99.90
14378;DHT22;7272;53.668;9.578;2023-12-14T05:01:27;5.80;99.90
14378;DHT22;7272;53.668;9.578;2023-12-14T05:04:28;5.70;99.90
14378;DHT22;7272;53.668;9.578;2023-12-14T05:07:30;5.70;99.90
14378;DHT22;7272;53.668;9.578;2023-12-14T05:10:32;5.70;99.90
14378;DHT22;7272;53.668;9.578;2023-12-14T05:13:33;5.70;99.90
14378;DHT22;7272;53.668;9.578;2023-12-14T05:16:34;5.70;99.90
14378;DHT22;7272;53.668;9.578;2023-12-14T05:19:35;5.60;99.90
14378;DHT22;7272;53.668;9.578;2023-12-14T05:22:36;5.60;99.90
14378;DHT22;7272;53.668;9.578;2023-12-14T05:25:38;5.70;99.90
14378;DHT22;7272;53.668;9.578;2023-12-14T05:28:39;5.60;99.90
14378;DHT22;7272;53.668;9.578;2023-12-14T05:31:41;5.60;99.90
14378;DHT22;7272;53.668;9.578;2023-12-14T05:34:42;5.60;99.90
14378;DHT22;7272;53.668;9.578;2023-12-14T05:37:43;5.60;99.90
14378;DHT22;7272;53.668;9.578;2023-12-14T05:40:45;5.60;99.90
14378;DHT22;7272;53.668;9.578;2023-12-14T05:43:46;5.60;99.90
14378;DHT22;7272;53.668;9.578;2023-12-14T05:46:48;5.60;99.90
14378;DHT22;7272;53.668;9.578;2023-12-14T05:49:49;5.60;99.90
14378;DHT22;7272;53.668;9.578;2023-12-14T05:52:50;5.60;99.90
14378;DHT22;7272;53.668;9.578;2023-12-14T05:55:52;5.60;99.90
14378;DHT22;7272;53.668;9.578;2023-12-14T05:58:53;5.60;99.90
14378;DHT22;7272;53.668;9.578;2023-12-14T06:01:57;5.60;99.90
14378;DHT22;7272;53.668;9.578;2023-12-14T06:04:58;5.60;99.90
14378;DHT22;7272;53.668;9.578;2023-12-14T06:07:59;5.60;99.90
14378;DHT22;7272;53.668;9.578;2023-12-14T06:11:01;5.60;99.90
14378;DHT22;7272;53.668;9.578;2023-12-14T06:14:02;5.60;99.90
14378;DHT22;7272;53.668;9.578;2023-12-14T06:17:03;5.70;99.90
14378;DHT22;7272;53.668;9.578;2023-12-14T06:20:06;5.60;99.90
14378;DHT22;7272;53.668;9.578;2023-12-14T06:23:09;5.60;99.90
14378;DHT22;7272;53.668;9.578;2023-12-14T06:26:11;5.60;99.90
14378;DHT22;7272;53.668;9.578;2023-12-14T06:29:12;5.60;99.90
14378;DHT22;7272;53.668;9.578;2023-12-14T06:32:13;5.60;99.90
14378;DHT22;7272;53.668;9.578;2023-12-14T06:35:15;5.60;99.90
14378;DHT22;7272;53.668;9.578;2023-12-14T06:38:16;5.60;99.90
14378;DHT22;7272;53.668;9.578;2023-12-14T06:41:22;5.60;99.90
14378;DHT22;7272;53.668;9.578;2023-12-14T06:44:23;5.60;99.90
14378;DHT22;7272;53.668;9.578;2023-12-14T06:47:27;5.70;99.90
14378;DHT22;7272;53.668;9.578;2023-12-14T06:50:28;5.60;99.90
14378;DHT22;7272;53.668;9.578;2023-12-14T06:53:29;5.70;99.90
14378;DHT22;7272;53.668;9.578;2023-12-14T06:56:31;5.60;99.90
14378;DHT22;7272;53.668;9.578;2023-12-14T06:59:32;5.60;99.90
14378;DHT22;7272;53.668;9.578;2023-12-14T07:02:34;5.60;99.90
14378;DHT22;7272;53.668;9.578;2023-12-14T07:05:36;5.60;99.90
14378;DHT22;7272;53.668;9.578;2023-12-14T07:08:38;5.60;99.90
14378;DHT22;7272;53.668;9.578;2023-12-14T07:11:40;5.70;99.90
14378;DHT22;7272;53.668;9.578;2023-12-14T07:14:41;5.60;99.90
14378;DHT22;7272;53.668;9.578;2023-12-14T07:17:43;5.70;99.90
14378;DHT22;7272;53.668;9.578;2023-12-14T07:20:44;5.60;99.90
14378;DHT22;7272;53.668;9.578;2023-12-14T07:23:46;5.70;99.90
14378;DHT22;7272;53.668;9.578;2023-12-14T07:26:47;5.60;99.90
14378;DHT22;7272;53.668;9.578;2023-12-14T07:29:50;5.50;99.90
14378;DHT22;7272;53.668;9.578;2023-12-14T07:32:51;5.60;99.90
14378;DHT22;7272;53.668;9.578;2023-12-14T07:35:53;5.50;99.90
14378;DHT22;7272;53.668;9.578;2023-12-14T07:38:54;5.50;99.90
14378;DHT22;7272;53.668;9.578;2023-12-14T07:41:56;5.50;99.90
14378;DHT22;7272;53.668;9.578;2023-12-14T07:44:57;5.50;99.90
14378;DHT22;7272;53.668;9.578;2023-12-14T07:47:58;5.50;99.90
14378;DHT22;7272;53.668;9.578;2023-12-14T07:50:59;5.50;99.90
14378;DHT22;7272;53.668;9.578;2023-12-14T07:54:00;5.50;99.90
14378;DHT22;7272;53.668;9.578;2023-12-14T07:57:04;5.50;99.90
14378;DHT22;7272;53.668;9.578;2023-12-14T08:00:07;5.50;99.90
14378;DHT22;7272;53.668;9.578;2023-12-14T08:03:09;5.50;99.90
14378;DHT22;7272;53.668;9.578;2023-12-14T08:06:10;5.60;99.90
14378;DHT22;7272;53.668;9.578;2023-12-14T08:09:11;5.60;99.90
14378;DHT22;7272;53.668;9.578;2023-12-14T08:12:13;5.50;99.90
14378;DHT22;7272;53.668;9.578;2023-12-14T08:15:14;5.50;99.90
14378;DHT22;7272;53.668;9.578;2023-12-14T08:18:16;5.50;99.90
14378;DHT22;7272;53.668;9.578;2023-12-14T08:21:18;5.50;99.90
14378;DHT22;7272;53.668;9.578;2023-12-14T08:24:19;5.50;99.90
14378;DHT22;7272;53.668;9.578;2023-12-14T08:27:21;5.60;99.90
14378;DHT22;7272;53.668;9.578;2023-12-14T08:30:22;5.60;99.90
14378;DHT22;7272;53.668;9.578;2023-12-14T08:33:24;5.50;99.90
14378;DHT22;7272;53.668;9.578;2023-12-14T08:36:25;5.50;99.90
14378;DHT22;7272;53.668;9.578;2023-12-14T08:39:26;5.50;99.90
14378;DHT22;7272;53.668;9.578;2023-12-14T08:42:28;5.50;99.90
14378;DHT22;7272;53.668;9.578;2023-12-14T08:45:29;5.40;99.90
14378;DHT22;7272;53.668;9.578;2023-12-14T08:48:31;5.40;99.90
14378;DHT22;7272;53.668;9.578;2023-12-14T08:51:32;5.40;99.90
14378;DHT22;7272;53.668;9.578;2023-12-14T08:54:33;5.40;99.90
14378;DHT22;7272;53.668;9.578;2023-12-14T08:57:35;5.40;99.90
14378;DHT22;7272;53.668;9.578;2023-12-14T09:00:36;5.30;99.90
14378;DHT22;7272;53.668;9.578;2023-12-14T09:03:37;5.30;99.90
14378;DHT22;7272;53.668;9.578;2023-12-14T09:06:39;5.30;99.90
14378;DHT22;7272;53.668;9.578;2023-12-14T09:09:42;5.40;99.90
14378;DHT22;7272;53.668;9.578;2023-12-14T09:12:45;5.40;99.90
14378;DHT22;7272;53.668;9.578;2023-12-14T09:15:46;5.40;99.90
14378;DHT22;7272;53.668;9.578;2023-12-14T09:18:47;5.40;99.90
14378;DHT22;7272;53.668;9.578;2023-12-14T09:21:49;5.40;99.90
14378;DHT22;7272;53.668;9.578;2023-12-14T09:24:50;5.30;99.90
14378;DHT22;7272;53.668;9.578;2023-12-14T09:27:51;5.40;99.90
14378;DHT22;7272;53.668;9.578;2023-12-14T09:30:53;5.50;99.90
14378;DHT22;7272;53.668;9.578;2023-12-14T09:33:54;5.50;99.90
14378;DHT22;7272;53.668;9.578;2023-12-14T09:36:55;5.50;99.90
14378;DHT22;7272;53.668;9.578;2023-12-14T09:39:56;5.60;99.90
14378;DHT22;7272;53.668;9.578;2023-12-14T09:42:58;5.70;99.90
14378;DHT22;7272;53.668;9.578;2023-12-14T09:46:00;5.70;99.90
14378;DHT22;7272;53.668;9.578;2023-12-14T09:49:04;5.70;99.90
14378;DHT22;7272;53.668;9.578;2023-12-14T09:52:05;5.60;99.90
14378;DHT22;7272;53.668;9.578;2023-12-14T09:55:07;5.60;99.90
14378;DHT22;7272;53.668;9.578;2023-12-14T09:58:09;5.60;99.90
14378;DHT22;7272;53.668;9.578;2023-12-14T10:01:21;5.60;99.90
14378;DHT22;7272;53.668;9.578;2023-12-14T10:04:24;5.60;99.90
14378;DHT22;7272;53.668;9.578;2023-12-14T10:07:25;5.60;99.90
14378;DHT22;7272;53.668;9.578;2023-12-14T10:10:29;5.70;99.90
14378;DHT22;7272;53.668;9.578;2023-12-14T10:13:37;5.80;99.90
14378;DHT22;7272;53.668;9.578;2023-12-14T10:16:39;5.80;99.90
14378;DHT22;7272;53.668;9.578;2023-12-14T10:19:42;5.80;99.90
14378;DHT22;7272;53.668;9.578;2023-12-14T10:22:44;5.90;99.90
14378;DHT22;7272;53.668;9.578;2023-12-14T10:25:46;5.90;99.90
14378;DHT22;7272;53.668;9.578;2023-12-14T10:28:47;6.00;99.90
14378;DHT22;7272;53.668;9.578;2023-12-14T10:31:49;6.00;99.90
14378;DHT22;7272;53.668;9.578;2023-12-14T10:34:51;6.00;99.90
14378;DHT22;7272;53.668;9.578;2023-12-14T10:37:52;6.00;99.90
14378;DHT22;7272;53.668;9.578;2023-12-14T10:40:54;6.00;99.90
14378;DHT22;7272;53.668;9.578;2023-12-14T10:43:57;6.00;99.90
14378;DHT22;7272;53.668;9.578;2023-12-14T10:47:02;6.10;99.90
14378;DHT22;7272;53.668;9.578;2023-12-14T10:50:05;6.20;99.90
14378;DHT22;7272;53.668;9.578;2023-12-14T10:53:07;6.20;99.90
14378;DHT22;7272;53.668;9.578;2023-12-14T10:56:10;6.30;99.90
14378;DHT22;7272;53.668;9.578;2023-12-14T10:59:15;6.30;99.90
14378;DHT22;7272;53.668;9.578;2023-12-14T11:02:17;6.30;99.90
14378;DHT22;7272;53.668;9.578;2023-12-14T11:05:18;6.30;99.90
14378;DHT22;7272;53.668;9.578;2023-12-14T11:08:23;6.30;99.90
14378;DHT22;7272;53.668;9.578;2023-12-14T11:11:28;6.40;99.90
14378;DHT22;7272;53.668;9.578;2023-12-14T11:14:30;6.40;99.90
14378;DHT22;7272;53.668;9.578;2023-12-14T11:17:32;6.40;99.90
14378;DHT22;7272;53.668;9.578;2023-12-14T11:20:47;6.40;99.90
14378;DHT22;7272;53.668;9.578;2023-12-14T11:23:50;6.40;99.90
14378;DHT22;7272;53.668;9.578;2023-12-14T11:26:52;6.40;99.90
14378;DHT22;7272;53.668;9.578;2023-12-14T11:29:53;6.20;99.90
14378;DHT22;7272;53.668;9.578;2023-12-14T11:32:55;6.20;99.90
14378;DHT22;7272;53.668;9.578;2023-12-14T11:35:56;6.20;99.90
14378;DHT22;7272;53.668;9.578;2023-12-14T11:38:57;6.30;99.90
14378;DHT22;7272;53.668;9.578;2023-12-14T11:42:00;6.40;99.90
14378;DHT22;7272;53.668;9.578;2023-12-14T11:45:02;6.50;99.90
14378;DHT22;7272;53.668;9.578;2023-12-14T11:48:04;6.50;99.90
14378;DHT22;7272;53.668;9.578;2023-12-14T11:51:06;6.50;99.90
14378;DHT22;7272;53.668;9.578;2023-12-14T11:54:08;6.50;99.90
14378;DHT22;7272;53.668;9.578;2023-12-14T11:57:10;6.40;99.90
14378;DHT22;7272;53.668;9.578;2023-12-14T12:00:13;6.30;99.90
14378;DHT22;7272;53.668;9.578;2023-12-14T12:03:16;6.30;99.90
14378;DHT22;7272;53.668;9.578;2023-12-14T12:06:21;6.30;99.90
14378;DHT22;7272;53.668;9.578;2023-12-14T12:09:36;6.30;99.90
14378;DHT22;7272;53.668;9.578;2023-12-14T12:12:38;6.30;99.90
14378;DHT22;7272;53.668;9.578;2023-12-14T12:15:40;6.30;99.90
14378;DHT22;7272;53.668;9.578;2023-12-14T12:18:41;6.40;99.90
14378;DHT22;7272;53.668;9.578;2023-12-14T12:21:42;6.30;99.90
14378;DHT22;7272;53.668;9.578;2023-12-14T12:24:43;6.30;99.90
14378;DHT22;7272;53.668;9.578;2023-12-14T12:27:45;6.40;99.90
14378;DHT22;7272;53.668;9.578;2023-12-14T12:30:48;6.40;99.90
14378;DHT22;7272;53.668;9.578;2023-12-14T12:33:49;6.40;99.90
14378;DHT22;7272;53.668;9.578;2023-12-14T12:36:50;6.50;99.90
14378;DHT22;7272;53.668;9.578;2023-12-14T12:39:51;6.40;99.90
14378;DHT22;7272;53.668;9.578;2023-12-14T12:42:53;6.50;99.90
14378;DHT22;7272;53.668;9.578;2023-12-14T12:45:55;6.60;99.90
14378;DHT22;7272;53.668;9.578;2023-12-14T12:48:58;6.60;99.90
14378;DHT22;7272;53.668;9.578;2023-12-14T12:51:59;6.50;99.90
14378;DHT22;7272;53.668;9.578;2023-12-14T12:55:00;6.50;99.90
14378;DHT22;7272;53.668;9.578;2023-12-14T12:58:01;6.50;99.90
14378;DHT22;7272;53.668;9.578;2023-12-14T13:01:06;6.40;99.90
14378;DHT22;7272;53.668;9.578;2023-12-14T13:04:17;6.40;99.90
14378;DHT22;7272;53.668;9.578;2023-12-14T13:07:19;6.40;99.90
14378;DHT22;7272;53.668;9.578;2023-12-14T13:10:20;6.30;99.90
14378;DHT22;7272;53.668;9.578;2023-12-14T13:13:27;6.30;99.90
14378;DHT22;7272;53.668;9.578;2023-12-14T13:16:29;6.30;99.90
14378;DHT22;7272;53.668;9.578;2023-12-14T13:19:30;6.30;99.90
14378;DHT22;7272;53.668;9.578;2023-12-14T13:22:32;6.20;99.90
14378;DHT22;7272;53.668;9.578;2023-12-14T13:25:33;6.20;99.90
14378;DHT22;7272;53.668;9.578;2023-12-14T13:28:35;6.30;99.90
14378;DHT22;7272;53.668;9.578;2023-12-14T13:31:37;6.40;99.90
14378;DHT22;7272;53.668;9.578;2023-12-14T13:34:39;6.50;99.90
14378;DHT22;7272;53.668;9.578;2023-12-14T13:37:40;6.50;99.90
14378;DHT22;7272;53.668;9.578;2023-12-14T13:40:42;6.50;99.90
14378;DHT22;7272;53.668;9.578;2023-12-14T13:43:43;6.50;99.90
14378;DHT22;7272;53.668;9.578;2023-12-14T13:46:47;6.50;99.90
14378;DHT22;7272;53.668;9.578;2023-12-14T13:49:49;6.50;99.90
14378;DHT22;7272;53.668;9.578;2023-12-14T13:52:50;6.30;99.90
14378;DHT22;7272;53.668;9.578;2023-12-14T13:55:51;6.30;99.90
14378;DHT22;7272;53.668;9.578;2023-12-14T13:58:53;6.40;99.90
14378;DHT22;7272;53.668;9.578;2023-12-14T14:01:55;6.50;99.90
14378;DHT22;7272;53.668;9.578;2023-12-14T14:04:57;6.60;99.90
14378;DHT22;7272;53.668;9.578;2023-12-14T14:07:58;6.60;99.90
14378;DHT22;7272;53.668;9.578;2023-12-14T14:11:00;6.70;99.90
14378;DHT22;7272;53.668;9.578;2023-12-14T14:14:01;6.70;99.90
14378;DHT22;7272;53.668;9.578;2023-12-14T14:17:04;6.50;99.90
14378;DHT22;7272;53.668;9.578;2023-12-14T14:20:08;6.30;99.90
14378;DHT22;7272;53.668;9.578;2023-12-14T14:23:10;6.30;99.90
14378;DHT22;7272;53.668;9.578;2023-12-14T14:26:11;6.40;99.90
14378;DHT22;7272;53.668;9.578;2023-12-14T14:29:13;6.50;99.90
14378;DHT22;7272;53.668;9.578;2023-12-14T14:32:15;6.60;99.90
14378;DHT22;7272;53.668;9.578;2023-12-14T14:35:16;6.60;99.90
14378;DHT22;7272;53.668;9.578;2023-12-14T14:38:19;6.50;99.90
14378;DHT22;7272;53.668;9.578;2023-12-14T14:41:20;6.40;99.90
14378;DHT22;7272;53.668;9.578;2023-12-14T14:44:21;6.40;99.90
14378;DHT22;7272;53.668;9.578;2023-12-14T14:47:23;6.40;99.90
14378;DHT22;7272;53.668;9.578;2023-12-14T14:50:25;6.40;99.90
14378;DHT22;7272;53.668;9.578;2023-12-14T14:53:26;6.50;99.90
14378;DHT22;7272;53.668;9.578;2023-12-14T14:56:27;6.50;99.90
14378;DHT22;7272;53.668;9.578;2023-12-14T14:59:28;6.50;99.90
14378;DHT22;7272;53.668;9.578;2023-12-14T15:02:31;6.40;99.90
14378;DHT22;7272;53.668;9.578;2023-12-14T15:05:33;6.30;99.90
14378;DHT22;7272;53.668;9.578;2023-12-14T15:08:34;6.20;99.90
14378;DHT22;7272;53.668;9.578;2023-12-14T15:11:35;6.00;99.90
14378;DHT22;7272;53.668;9.578;2023-12-14T15:14:36;6.00;99.90
14378;DHT22;7272;53.668;9.578;2023-12-14T15:17:38;5.80;99.90
14378;DHT22;7272;53.668;9.578;2023-12-14T15:20:39;5.70;99.90
14378;DHT22;7272;53.668;9.578;2023-12-14T15:23:41;5.70;99.90
14378;DHT22;7272;53.668;9.578;2023-12-14T15:26:44;5.70;99.90
14378;DHT22;7272;53.668;9.578;2023-12-14T15:29:45;5.70;99.90
14378;DHT22;7272;53.668;9.578;2023-12-14T15:32:47;5.60;99.90
14378;DHT22;7272;53.668;9.578;2023-12-14T15:35:48;5.70;99.90
14378;DHT22;7272;53.668;9.578;2023-12-14T15:38:50;5.70;99.90
14378;DHT22;7272;53.668;9.578;2023-12-14T15:41:51;5.60;99.90
14378;DHT22;7272;53.668;9.578;2023-12-14T15:44:52;5.40;99.90
14378;DHT22;7272;53.668;9.578;2023-12-14T15:47:54;5.30;99.90
14378;DHT22;7272;53.668;9.578;2023-12-14T15:50:55;5.30;99.90
14378;DHT22;7272;53.668;9.578;2023-12-14T15:53:56;5.40;99.90
14378;DHT22;7272;53.668;9.578;2023-12-14T15:57:00;5.30;99.90
14378;DHT22;7272;53.668;9.578;2023-12-14T16:00:01;5.20;99.90
14378;DHT22;7272;53.668;9.578;2023-12-14T16:03:09;5.20;99.90
14378;DHT22;7272;53.668;9.578;2023-12-14T16:06:10;5.20;99.90
14378;DHT22;7272;53.668;9.578;2023-12-14T16:09:11;5.30;99.90
14378;DHT22;7272;53.668;9.578;2023-12-14T16:12:13;5.30;99.90
14378;DHT22;7272;53.668;9.578;2023-12-14T16:15:14;5.30;99.90
14378;DHT22;7272;53.668;9.578;2023-12-14T16:18:16;5.30;99.90
14378;DHT22;7272;53.668;9.578;2023-12-14T16:21:18;5.30;99.90
14378;DHT22;7272;53.668;9.578;2023-12-14T16:24:19;5.20;99.90
14378;DHT22;7272;53.668;9.578;2023-12-14T16:27:21;5.30;99.90
14378;DHT22;7272;53.668;9.578;2023-12-14T16:30:22;5.30;99.90
14378;DHT22;7272;53.668;9.578;2023-12-14T16:33:24;5.40;99.90
14378;DHT22;7272;53.668;9.578;2023-12-14T16:36:25;5.30;99.90
14378;DHT22;7272;53.668;9.578;2023-12-14T16:39:26;5.30;99.90
14378;DHT22;7272;53.668;9.578;2023-12-14T16:42:28;5.20;99.90
14378;DHT22;7272;53.668;9.578;2023-12-14T16:45:29;5.30;99.90
14378;DHT22;7272;53.668;9.578;2023-12-14T16:48:31;5.30;99.90
14378;DHT22;7272;53.668;9.578;2023-12-14T16:51:32;5.30;99.90
14378;DHT22;7272;53.668;9.578;2023-12-14T16:54:34;5.30;99.90
14378;DHT22;7272;53.668;9.578;2023-12-14T16:57:35;5.30;99.90
14378;DHT22;7272;53.668;9.578;2023-12-14T17:00:36;5.40;99.90
14378;DHT22;7272;53.668;9.578;2023-12-14T17:03:38;5.40;99.90
14378;DHT22;7272;53.668;9.578;2023-12-14T17:06:39;5.50;99.90
14378;DHT22;7272;53.668;9.578;2023-12-14T17:09:41;5.60;99.90
14378;DHT22;7272;53.668;9.578;2023-12-14T17:12:42;5.70;99.90
14378;DHT22;7272;53.668;9.578;2023-12-14T17:15:43;5.60;99.90
14378;DHT22;7272;53.668;9.578;2023-12-14T17:18:45;5.60;99.90
14378;DHT22;7272;53.668;9.578;2023-12-14T17:21:50;5.70;99.90
14378;DHT22;7272;53.668;9.578;2023-12-14T17:24:51;5.70;99.90
14378;DHT22;7272;53.668;9.578;2023-12-14T17:27:52;5.70;99.90
14378;DHT22;7272;53.668;9.578;2023-12-14T17:30:53;5.70;99.90
14378;DHT22;7272;53.668;9.578;2023-12-14T17:33:55;5.60;99.90
14378;DHT22;7272;53.668;9.578;2023-12-14T17:36:56;5.60;99.90
14378;DHT22;7272;53.668;9.578;2023-12-14T17:39:57;5.50;99.90
14378;DHT22;7272;53.668;9.578;2023-12-14T17:42:58;5.50;99.90
14378;DHT22;7272;53.668;9.578;2023-12-14T17:46:00;5.40;99.90
14378;DHT22;7272;53.668;9.578;2023-12-14T17:49:02;5.40;99.90
14378;DHT22;7272;53.668;9.578;2023-12-14T17:52:04;5.30;99.90
14378;DHT22;7272;53.668;9.578;2023-12-14T17:55:06;5.30;99.90
14378;DHT22;7272;53.668;9.578;2023-12-14T17:58:07;5.30;99.90
14378;DHT22;7272;53.668;9.578;2023-12-14T18:01:08;5.30;99.90
14378;DHT22;7272;53.668;9.578;2023-12-14T18:04:10;5.30;99.90
14378;DHT22;7272;53.668;9.578;2023-12-14T18:07:12;5.30;99.90
14378;DHT22;7272;53.668;9.578;2023-12-14T18:10:13;5.30;99.90
14378;DHT22;7272;53.668;9.578;2023-12-14T18:13:14;5.20;99.90
14378;DHT22;7272;53.668;9.578;2023-12-14T18:16:17;5.10;99.90
14378;DHT22;7272;53.668;9.578;2023-12-14T18:19:19;5.00;99.90
14378;DHT22;7272;53.668;9.578;2023-12-14T18:22:21;5.00;99.90
14378;DHT22;7272;53.668;9.578;2023-12-14T18:25:23;4.90;99.90
14378;DHT22;7272;53.668;9.578;2023-12-14T18:28:26;4.90;99.90
14378;DHT22;7272;53.668;9.578;2023-12-14T18:31:27;4.80;99.90
14378;DHT22;7272;53.668;9.578;2023-12-14T18:34:34;4.80;99.90
14378;DHT22;7272;53.668;9.578;2023-12-14T18:37:36;4.80;99.90
14378;DHT22;7272;53.668;9.578;2023-12-14T18:40:37;4.70;99.90
14378;DHT22;7272;53.668;9.578;2023-12-14T18:43:38;4.70;99.90
14378;DHT22;7272;53.668;9.578;2023-12-14T18:46:39;4.50;99.90
14378;DHT22;7272;53.668;9.578;2023-12-14T18:49:41;4.50;99.90
14378;DHT22;7272;53.668;9.578;2023-12-14T18:52:42;4.40;99.90
14378;DHT22;7272;53.668;9.578;2023-12-14T18:55:44;4.30;99.90
14378;DHT22;7272;53.668;9.578;2023-12-14T18:58:45;4.30;99.90
14378;DHT22;7272;53.668;9.578;2023-12-14T19:01:47;4.20;99.90
14378;DHT22;7272;53.668;9.578;2023-12-14T19:04:49;4.10;99.90
14378;DHT22;7272;53.668;9.578;2023-12-14T19:07:51;4.00;99.90
14378;DHT22;7272;53.668;9.578;2023-12-14T19:10:52;4.00;99.90
14378;DHT22;7272;53.668;9.578;2023-12-14T19:13:53;3.90;99.90
14378;DHT22;7272;53.668;9.578;2023-12-14T19:16:56;3.90;99.90
14378;DHT22;7272;53.668;9.578;2023-12-14T19:19:57;3.90;99.90
14378;DHT22;7272;53.668;9.578;2023-12-14T19:22:59;3.90;99.90
14378;DHT22;7272;53.668;9.578;2023-12-14T19:26:01;3.90;99.90
14378;DHT22;7272;53.668;9.578;2023-12-14T19:29:02;4.00;99.90
14378;DHT22;7272;53.668;9.578;2023-12-14T19:32:05;3.90;99.90
14378;DHT22;7272;53.668;9.578;2023-12-14T19:35:08;3.90;99.90
14378;DHT22;7272;53.668;9.578;2023-12-14T19:38:09;3.80;99.90
14378;DHT22;7272;53.668;9.578;2023-12-14T19:41:10;3.70;99.90
14378;DHT22;7272;53.668;9.578;2023-12-14T19:44:12;3.70;99.90
14378;DHT22;7272;53.668;9.578;2023-12-14T19:47:13;3.60;99.90